KLDM/LDM METAR and TAF weather

Enter ICAO airport designator
Station Type Date Time Source
KLDM METAR 2022/05/23 15:35 UTC NOAA

KLDM 231535Z AUTO 00000KT 10SM SCT045 BKN065 12/02 A3038 RMK AO2 T01240015


Station Type Date Time Source
KLDM Decoded METAR 2022/05/23 15:35 UTC NOAA

Ludington, Mason County Airport, MI, United States (KLDM) 43-58N 86-24W
May 23, 2022 - 11:35 AM EDT / 2022.05.23 1535 UTC
Wind: Calm:0
Visibility: 10 mile(s):0
Sky conditions: mostly cloudy
Temperature: 54.3 F (12.4 C)
Dew Point: 34.7 F (1.5 C)
Relative Humidity: 47%
Pressure (altimeter): 30.38 in. Hg (1028 hPa)
ob: KLDM 231535Z AUTO 00000KT 10SM SCT045 BKN065 12/02 A3038 RMK AO2 T01240015
cycle: 15

Station Type Date Time Source
KLDM TAF UTC NOAA

Error!

Example: see airport list